Time;durP1;ratioP1;P1;durP2;ratioP2;P2;SDS_P1;SDS_P2;PMS_P1;PMS_P2;Temp;Humidity;BMP_temperature;BMP_pressure;BME280_temperature;BME280_humidity;BME280_pressure;Samples;Min_cycle;Max_cycle;Signal;HPM_P1;HPM_P2
2022/09/24 00:00:24;;;;;;;27.52;18.13;;;;;;;10.61;58.21;101230.03;5010034;28;20502;-70
2022/09/24 00:02:49;;;;;;;30.23;18.55;;;;;;;10.68;58.09;101219.38;5006342;28;20140;-66
2022/09/24 00:05:15;;;;;;;26.75;17.83;;;;;;;10.66;58.11;101216.84;5010997;28;20029;-65
2022/09/24 00:07:40;;;;;;;28.27;19.73;;;;;;;10.64;58.21;101216.88;5008918;28;20072;-72
2022/09/24 00:10:06;;;;;;;36.40;19.42;;;;;;;10.63;58.05;101212.53;5009555;28;20037;-68
2022/09/24 00:12:31;;;;;;;29.45;20.15;;;;;;;10.64;58.26;101214.28;5007078;28;20045;-68
2022/09/24 00:14:57;;;;;;;31.52;20.77;;;;;;;10.62;58.29;101210.84;5015621;28;20198;-67
2022/09/24 00:17:22;;;;;;;26.85;18.58;;;;;;;10.67;58.44;101209.84;5007857;28;20184;-68
2022/09/24 00:19:47;;;;;;;30.95;19.58;;;;;;;10.76;58.00;101212.13;5009762;28;20056;-68
2022/09/24 00:22:13;;;;;;;29.17;18.60;;;;;;;10.67;58.22;101213.31;5009899;28;20300;-69
2022/09/24 00:27:26;;;;;;;28.70;18.58;;;;;;;10.70;58.15;101204.50;5006758;28;20049;-68
2022/09/24 00:29:52;;;;;;;28.42;19.45;;;;;;;10.68;58.15;101206.31;5014015;28;20128;-73
2022/09/24 00:32:17;;;;;;;27.10;19.17;;;;;;;10.72;58.14;101202.69;4995928;28;20055;-69
2022/09/24 00:34:42;;;;;;;33.17;20.92;;;;;;;10.46;58.96;101196.63;5015251;28;20060;-70
2022/09/24 00:37:08;;;;;;;35.42;21.52;;;;;;;10.66;58.53;101195.06;5010096;28;20144;-75
2022/09/24 00:39:33;;;;;;;26.85;19.55;;;;;;;10.76;58.32;101188.59;5010294;28;20107;-74
2022/09/24 00:41:59;;;;;;;33.40;20.58;;;;;;;10.73;58.08;101186.97;5010113;28;20164;-74
2022/09/24 00:44:39;;;;;;;26.77;19.60;;;;;;;10.82;57.98;101185.81;5008861;28;20029;-74
2022/09/24 00:47:27;;;;;;;37.97;21.73;;;;;;;10.81;57.77;101184.94;4997965;28;20061;-72
2022/09/24 00:50:33;;;;;;;31.33;20.13;;;;;;;10.78;57.87;101179.78;4997493;28;20037;-72
2022/09/24 00:53:04;;;;;;;26.95;18.95;;;;;;;10.75;57.95;101179.91;4997463;28;20046;-72
2022/09/24 00:55:32;;;;;;;30.65;19.92;;;;;;;10.81;57.95;101182.31;4997821;28;20059;-73
2022/09/24 00:58:02;;;;;;;39.50;21.30;;;;;;;10.81;58.03;101174.47;5007934;28;20049;-73
2022/09/24 01:00:31;;;;;;;30.20;19.48;;;;;;;10.85;58.23;101175.22;5009124;28;20045;-74
2022/09/24 01:03:04;;;;;;;37.25;22.13;;;;;;;10.74;57.84;101178.19;5007316;28;20057;-73
2022/09/24 01:05:30;;;;;;;29.83;19.63;;;;;;;10.70;58.25;101165.28;5009159;28;20976;-70
2022/09/24 01:07:56;;;;;;;27.70;19.30;;;;;;;10.70;57.98;101170.50;5007126;28;20322;-71
2022/09/24 01:10:46;;;;;;;37.33;21.65;;;;;;;10.62;58.41;101169.03;5010016;28;20064;-71
2022/09/24 01:13:25;;;;;;;34.33;21.70;;;;;;;10.57;58.30;101163.13;5010723;28;20038;-71
2022/09/24 01:16:07;;;;;;;35.35;20.42;;;;;;;10.52;58.78;101165.03;5008786;28;20045;-72
2022/09/24 01:18:42;;;;;;;30.80;20.00;;;;;;;10.45;59.30;101160.09;5011332;28;20037;-72
2022/09/24 01:21:19;;;;;;;37.35;23.40;;;;;;;10.30;59.08;101159.69;5008316;28;20044;-70
2022/09/24 01:24:30;;;;;;;31.63;21.10;;;;;;;10.39;59.34;101155.91;5006986;28;20168;-69
2022/09/24 01:27:05;;;;;;;33.53;20.88;;;;;;;10.38;59.40;101160.28;4994463;28;20046;-70
2022/09/24 01:29:40;;;;;;;38.45;23.00;;;;;;;10.37;59.32;101155.09;5023748;28;20033;-70
2022/09/24 01:32:14;;;;;;;42.97;23.92;;;;;;;10.33;59.21;101146.53;5009638;28;20103;-71
2022/09/24 01:34:46;;;;;;;37.08;21.48;;;;;;;10.34;59.03;101150.84;5012866;28;20030;-70
2022/09/24 01:37:16;;;;;;;37.88;20.95;;;;;;;10.44;59.65;101151.41;5008203;28;20046;-70
2022/09/24 01:39:45;;;;;;;35.17;23.40;;;;;;;10.36;59.53;101156.03;5007128;28;20038;-70
2022/09/24 01:42:12;;;;;;;34.20;22.45;;;;;;;10.39;59.40;101151.56;5007261;28;20053;-70
2022/09/24 01:44:43;;;;;;;35.40;23.98;;;;;;;10.40;59.12;101139.34;5010122;28;20111;-70
2022/09/24 01:47:15;;;;;;;34.10;22.40;;;;;;;10.42;59.14;101140.13;5010793;28;20881;-70
2022/09/24 01:49:40;;;;;;;;;;;;;;;10.29;59.74;101137.09;5009755;28;20056;-71
2022/09/24 01:52:11;;;;;;;36.10;21.92;;;;;;;10.10;60.26;101139.50;5015440;28;20397;-70
2022/09/24 01:54:41;;;;;;;31.58;21.98;;;;;;;10.30;59.46;101130.09;5012874;28;20494;-72
2022/09/24 01:57:14;;;;;;;35.53;21.33;;;;;;;10.21;59.85;101139.97;5014795;28;20655;-71
2022/09/24 02:00:00;;;;;;;33.97;21.88;;;;;;;10.34;59.70;101134.31;5036551;28;20037;-71
2022/09/24 02:02:44;;;;;;;40.42;24.42;;;;;;;10.21;59.94;101132.16;5014066;28;20209;-71
2022/09/24 02:05:24;;;;;;;39.50;24.48;;;;;;;10.02;60.41;101125.84;5004568;28;20096;-71
2022/09/24 02:08:07;;;;;;;38.42;24.23;;;;;;;10.17;60.26;101120.09;5012614;28;20449;-72
2022/09/24 02:10:45;;;;;;;39.88;24.02;;;;;;;10.15;60.04;101116.69;5017486;28;20040;-73
2022/09/24 02:13:14;;;;;;;38.50;23.27;;;;;;;10.13;60.41;101117.63;5016519;28;20092;-72
2022/09/24 02:15:44;;;;;;;38.63;24.00;;;;;;;10.13;60.29;101121.09;5016535;28;20129;-71
2022/09/24 02:18:14;;;;;;;42.47;24.55;;;;;;;10.09;60.54;101114.28;5019402;28;20501;-75
2022/09/24 02:20:42;;;;;;;41.42;25.42;;;;;;;10.14;60.52;101109.72;5015659;28;20121;-75
2022/09/24 02:23:10;;;;;;;44.92;26.63;;;;;;;10.12;60.61;101115.91;5014977;28;20219;-74
2022/09/24 02:26:00;;;;;;;44.05;25.00;;;;;;;10.13;60.39;101121.09;5015360;28;20263;-74
2022/09/24 02:28:27;;;;;;;40.72;25.70;;;;;;;10.30;60.25;101114.44;5014488;28;20071;-74
2022/09/24 02:31:04;;;;;;;43.95;26.23;;;;;;;10.30;59.97;101114.44;5014048;28;20620;-75
2022/09/24 02:36:17;;;;;;;38.08;23.27;;;;;;;10.45;59.67;101113.03;5036123;28;20401;-71
2022/09/24 02:38:45;;;;;;;38.40;23.98;;;;;;;10.47;59.75;101112.06;5014693;28;20060;-75
2022/09/24 02:41:12;;;;;;;37.25;23.80;;;;;;;10.54;60.00;101108.31;5013612;28;20043;-74
2022/09/24 02:43:40;;;;;;;44.13;23.95;;;;;;;10.55;59.88;101109.22;5015347;28;20034;-71
2022/09/24 02:46:08;;;;;;;44.55;26.38;;;;;;;10.40;59.99;101105.38;5015030;28;20056;-68
2022/09/24 02:48:37;;;;;;;39.45;25.63;;;;;;;10.49;59.69;101098.97;5011177;28;20116;-69
2022/09/24 02:51:04;;;;;;;39.90;23.63;;;;;;;10.57;59.74;101103.00;5014245;28;20039;-69
2022/09/24 02:53:30;;;;;;;40.97;24.65;;;;;;;10.62;59.65;101101.06;5015110;28;20087;-69
2022/09/24 02:55:58;;;;;;;45.38;27.30;;;;;;;10.64;59.45;101099.25;5015556;28;20033;-69
2022/09/24 02:58:24;;;;;;;41.80;25.95;;;;;;;10.38;60.37;101091.50;5014297;28;20038;-69
2022/09/24 03:00:49;;;;;;;45.88;25.45;;;;;;;10.51;59.88;101086.69;5013830;28;20036;-68
2022/09/24 03:03:14;;;;;;;41.13;24.77;;;;;;;10.55;59.66;101089.16;5009505;28;20041;-69
2022/09/24 03:05:40;;;;;;;40.60;24.27;;;;;;;10.60;59.99;101091.59;5010491;28;20044;-68
2022/09/24 03:08:06;;;;;;;37.75;23.58;;;;;;;10.69;59.77;101075.56;5010314;28;20452;-68
2022/09/24 03:10:32;;;;;;;46.63;26.15;;;;;;;10.59;59.89;101084.63;5010613;28;20350;-68
2022/09/24 03:12:57;;;;;;;39.80;25.70;;;;;;;10.55;59.88;101090.91;5007503;28;20033;-68
2022/09/24 03:15:23;;;;;;;39.35;24.15;;;;;;;10.59;59.99;101085.50;5011001;28;20410;-68
2022/09/24 03:17:48;;;;;;;42.83;25.10;;;;;;;10.52;60.09;101084.00;5010093;28;20383;-69
2022/09/24 03:20:14;;;;;;;45.53;27.67;;;;;;;10.60;60.16;101081.97;5011127;28;20509;-68
2022/09/24 03:22:39;;;;;;;45.75;27.00;;;;;;;10.56;60.09;101090.84;5009261;28;20121;-69
2022/09/24 03:25:05;;;;;;;44.30;26.17;;;;;;;10.62;60.10;101088.00;5012251;28;20029;-69
2022/09/24 03:27:31;;;;;;;44.50;25.70;;;;;;;10.68;59.72;101088.69;5008661;28;20054;-70
2022/09/24 03:32:40;;;;;;;46.28;26.10;;;;;;;10.64;60.27;101073.13;5010040;28;20621;-70
2022/09/24 03:35:06;;;;;;;43.03;27.15;;;;;;;10.54;60.26;101079.59;5009648;28;20045;-70
2022/09/24 03:37:35;;;;;;;48.97;28.38;;;;;;;10.64;60.08;101072.28;5008666;28;20052;-72
2022/09/24 03:40:01;;;;;;;42.47;26.67;;;;;;;10.70;60.06;101069.41;5009427;28;20033;-71
2022/09/24 03:42:26;;;;;;;44.63;27.13;;;;;;;10.69;60.20;101069.47;5009284;28;20049;-71
2022/09/24 03:44:52;;;;;;;47.85;27.33;;;;;;;10.62;60.09;101069.72;5015870;28;20065;-69
2022/09/24 03:47:20;;;;;;;49.17;27.13;;;;;;;10.69;60.28;101061.66;5009617;28;20044;-69
2022/09/24 03:49:46;;;;;;;50.97;30.10;;;;;;;10.74;60.34;101067.53;4997608;28;20039;-68
2022/09/24 03:52:11;;;;;;;50.47;29.20;;;;;;;10.69;60.49;101074.72;5011661;28;20049;-68
2022/09/24 03:54:37;;;;;;;54.47;29.73;;;;;;;10.67;60.56;101071.31;5008078;28;20467;-69
2022/09/24 03:57:02;;;;;;;48.33;28.83;;;;;;;10.77;60.37;101063.06;5008150;28;20124;-69
2022/09/24 03:59:28;;;;;;;56.13;27.65;;;;;;;10.86;60.02;101067.13;5009342;28;20033;-68
2022/09/24 04:01:54;;;;;;;48.92;29.00;;;;;;;10.44;61.12;101065.16;5009124;28;20574;-68
2022/09/24 04:04:19;;;;;;;53.08;30.27;;;;;;;10.71;60.54;101065.06;5006733;28;20041;-68
2022/09/24 04:06:45;;;;;;;54.45;29.35;;;;;;;10.85;60.40;101060.19;4997606;28;20390;-68
2022/09/24 04:09:10;;;;;;;52.53;30.77;;;;;;;10.77;60.64;101052.59;5011589;28;20026;-68
2022/09/24 04:11:36;;;;;;;52.42;29.98;;;;;;;10.84;60.20;101055.88;5008439;28;20080;-67
2022/09/24 04:14:04;;;;;;;51.42;30.02;;;;;;;10.79;60.67;101061.25;5014276;28;20029;-67
2022/09/24 04:16:30;;;;;;;49.25;29.20;;;;;;;10.59;61.18;101061.13;5015601;28;20041;-68
2022/09/24 04:18:55;;;;;;;55.13;30.02;;;;;;;10.66;61.23;101059.13;5009562;28;20180;-68
2022/09/24 04:21:23;;;;;;;60.20;32.63;;;;;;;10.18;62.38;101059.09;5008844;28;20040;-68
2022/09/24 04:23:50;;;;;;;56.45;30.38;;;;;;;10.54;61.45;101053.44;5007816;28;20588;-68
2022/09/24 04:26:16;;;;;;;57.55;30.90;;;;;;;10.72;61.15;101051.06;5007527;28;20101;-71
2022/09/24 04:28:41;;;;;;;51.50;29.40;;;;;;;10.62;61.40;101047.94;5007755;28;20577;-71
2022/09/24 04:31:07;;;;;;;56.72;30.85;;;;;;;10.92;60.58;101056.41;5013307;28;20069;-70
2022/09/24 04:33:32;;;;;;;58.78;30.08;;;;;;;10.99;60.34;101052.63;5005658;28;20130;-71
2022/09/24 04:35:58;;;;;;;55.90;30.13;;;;;;;11.01;60.55;101056.03;5013814;28;20033;-70
2022/09/24 04:38:23;;;;;;;56.22;32.30;;;;;;;10.93;60.99;101057.25;5008599;28;20144;-67
2022/09/24 04:40:49;;;;;;;62.22;32.25;;;;;;;11.01;60.70;101056.03;5007629;28;20109;-66
2022/09/24 04:43:16;;;;;;;53.08;29.95;;;;;;;10.88;60.91;101049.59;5009658;28;20056;-67
2022/09/24 04:45:43;;;;;;;59.50;31.63;;;;;;;11.08;60.45;101053.19;5008230;28;20026;-68
2022/09/24 04:48:09;;;;;;;57.65;32.33;;;;;;;11.12;60.24;101050.41;5009501;28;20569;-66
2022/09/24 04:50:36;;;;;;;57.03;30.52;;;;;;;11.23;60.09;101047.38;5013874;28;20037;-67
2022/09/24 04:53:01;;;;;;;51.53;29.38;;;;;;;11.28;59.91;101042.78;5007931;28;20410;-66
2022/09/24 04:55:27;;;;;;;56.17;31.45;;;;;;;11.23;60.49;101044.75;5009947;28;20344;-66
2022/09/24 04:57:57;;;;;;;56.58;31.70;;;;;;;11.32;59.87;101043.53;5006321;28;20433;-66
2022/09/24 05:00:23;;;;;;;52.70;31.08;;;;;;;11.20;59.97;101042.25;5008737;28;20042;-66
2022/09/24 05:02:56;;;;;;;52.70;30.38;;;;;;;11.14;59.94;101042.50;5004376;28;20618;-69
2022/09/24 05:05:22;;;;;;;55.38;31.83;;;;;;;11.36;59.78;101045.13;5013670;28;20029;-70
2022/09/24 05:07:48;;;;;;;54.33;31.83;;;;;;;11.26;59.85;101044.59;5011611;28;20106;-69
2022/09/24 05:10:13;;;;;;;54.97;31.38;;;;;;;11.15;60.21;101044.19;5010672;28;20118;-72
2022/09/24 05:12:39;;;;;;;50.53;29.17;;;;;;;11.32;59.93;101041.75;5005773;28;20056;-72
2022/09/24 05:15:06;;;;;;;53.22;27.77;;;;;;;11.43;59.37;101036.09;5008237;28;20079;-71
2022/09/24 05:17:31;;;;;;;57.47;31.67;;;;;;;11.50;59.23;101048.00;5012859;28;20164;-75
2022/09/24 05:19:58;;;;;;;53.22;30.63;;;;;;;11.48;59.52;101041.13;5007409;28;20037;-74
2022/09/24 05:22:26;;;;;;;54.28;31.38;;;;;;;11.21;60.08;101041.34;5009183;28;20048;-73
2022/09/24 05:24:51;;;;;;;53.47;30.20;;;;;;;11.39;59.96;101045.81;5011645;28;20048;-72
2022/09/24 05:27:18;;;;;;;58.83;32.22;;;;;;;11.30;60.11;101051.44;5009129;28;20042;-71
2022/09/24 05:29:43;;;;;;;55.00;30.75;;;;;;;11.46;59.65;101046.41;5029094;28;20033;-73
2022/09/24 05:32:14;;;;;;;55.03;30.73;;;;;;;11.54;59.38;101048.75;5012877;28;20542;-70
2022/09/24 05:34:42;;;;;;;53.65;30.60;;;;;;;11.32;59.89;101046.16;5006173;28;20478;-70
2022/09/24 05:37:08;;;;;;;58.47;31.98;;;;;;;11.30;60.25;101054.03;5008738;28;20038;-70
2022/09/24 05:39:33;;;;;;;54.55;31.88;;;;;;;11.50;59.73;101045.38;5008476;28;20056;-71
2022/09/24 05:42:01;;;;;;;49.15;29.73;;;;;;;11.46;59.51;101042.06;5007471;28;20120;-70
2022/09/24 05:44:26;;;;;;;46.90;29.95;;;;;;;11.53;59.58;101047.03;4989858;28;20037;-69
2022/09/24 05:46:52;;;;;;;49.45;29.13;;;;;;;11.43;59.81;101041.31;5007455;28;20045;-70
2022/09/24 05:49:18;;;;;;;53.45;29.80;;;;;;;11.63;59.28;101043.97;5008665;28;20030;-70
2022/09/24 05:51:43;;;;;;;53.72;28.90;;;;;;;11.55;59.63;101042.56;5008152;28;20029;-71
2022/09/24 05:54:11;;;;;;;56.53;30.65;;;;;;;11.51;59.61;101039.25;5010133;28;20033;-72
2022/09/24 05:56:37;;;;;;;55.75;30.13;;;;;;;11.59;59.54;101041.53;5006294;28;20033;-71
2022/09/24 05:59:04;;;;;;;56.38;30.88;;;;;;;11.61;59.71;101043.19;5006129;28;22056;-70
2022/09/24 06:01:29;;;;;;;54.00;29.17;;;;;;;11.52;59.93;101046.19;5007020;28;20040;-71
2022/09/24 06:03:55;;;;;;;49.67;29.60;;;;;;;10.83;61.81;101041.06;5008617;28;20057;-70
2022/09/24 06:06:22;;;;;;;57.95;32.00;;;;;;;10.95;61.66;101048.47;5006086;28;20127;-69
2022/09/24 06:08:47;;;;;;;58.03;29.75;;;;;;;11.45;60.31;101050.81;5000702;28;20411;-72
2022/09/24 06:11:13;;;;;;;53.40;29.08;;;;;;;11.34;60.50;101060.88;5005110;28;20037;-72
2022/09/24 06:13:39;;;;;;;50.72;28.20;;;;;;;11.50;59.94;101055.00;5008966;28;20042;-71
2022/09/24 06:16:07;;;;;;;53.83;30.60;;;;;;;11.60;59.59;101058.97;5007816;28;20029;-71
2022/09/24 06:18:39;;;;;;;48.70;28.13;;;;;;;11.57;59.58;101059.06;5007251;28;20115;-71
2022/09/24 06:21:09;;;;;;;46.17;26.10;;;;;;;11.59;59.66;101063.31;5007002;28;20041;-71
2022/09/24 06:23:34;;;;;;;48.97;28.50;;;;;;;11.71;59.49;101054.13;5006913;28;20098;-71
2022/09/24 06:26:00;;;;;;;47.38;25.60;;;;;;;11.77;59.24;101053.00;5008323;28;20033;-71
2022/09/24 06:28:26;;;;;;;46.40;25.60;;;;;;;11.77;59.47;101058.25;5006529;28;20033;-71
2022/09/24 06:30:52;;;;;;;39.58;24.67;;;;;;;11.60;59.45;101062.44;5008704;28;23330;-71
2022/09/24 06:33:19;;;;;;;41.00;23.33;;;;;;;11.80;58.93;101058.16;5008843;28;20056;-70
2022/09/24 06:35:45;;;;;;;38.63;23.80;;;;;;;11.65;58.91;101054.38;5005347;28;20059;-71
2022/09/24 06:38:13;;;;;;;41.95;23.48;;;;;;;11.67;59.34;101056.00;5011277;28;20038;-71
2022/09/24 06:40:39;;;;;;;38.97;22.83;;;;;;;11.78;59.08;101063.47;5010736;28;20037;-71
2022/09/24 06:43:06;;;;;;;41.53;22.85;;;;;;;11.80;59.08;101056.41;5010202;28;20148;-70
2022/09/24 06:45:32;;;;;;;36.58;22.60;;;;;;;11.70;59.36;101065.50;5010822;28;20029;-70
2022/09/24 06:47:59;;;;;;;41.83;22.67;;;;;;;11.55;59.90;101072.22;5015792;28;20056;-70
2022/09/24 06:50:26;;;;;;;33.70;19.52;;;;;;;11.58;59.70;101071.25;5012668;28;20121;-71
2022/09/24 06:52:57;;;;;;;39.88;20.48;;;;;;;11.67;59.24;101076.13;5011960;28;20049;-70
2022/09/24 06:55:23;;;;;;;31.55;20.38;;;;;;;11.83;59.25;101077.19;5013276;28;20080;-72
2022/09/24 06:57:49;;;;;;;32.33;21.05;;;;;;;11.87;58.74;101067.47;5008444;28;20569;-71
2022/09/24 07:00:16;;;;;;;37.38;20.75;;;;;;;11.96;58.75;101076.69;5027208;28;20092;-70
2022/09/24 07:02:42;;;;;;;34.80;21.02;;;;;;;11.81;58.95;101073.78;5008271;28;20128;-70
2022/09/24 07:05:08;;;;;;;34.90;21.08;;;;;;;11.93;58.75;101082.91;5010713;28;20064;-72
2022/09/24 07:07:34;;;;;;;35.95;21.55;;;;;;;11.98;58.26;101075.72;5013136;28;20085;-71
2022/09/24 07:10:02;;;;;;;36.22;20.60;;;;;;;11.63;59.51;101077.16;5012534;28;20457;-71
2022/09/24 07:12:31;;;;;;;33.10;19.70;;;;;;;11.98;58.84;101080.94;5007398;28;20408;-72
2022/09/24 07:14:57;;;;;;;36.97;20.85;;;;;;;11.94;58.95;101082.00;5015930;28;20044;-70
2022/09/24 07:17:24;;;;;;;37.55;21.98;;;;;;;12.12;58.74;101082.13;5005160;28;20042;-71
2022/09/24 07:19:50;;;;;;;37.72;20.15;;;;;;;12.10;58.30;101082.19;5014297;28;20091;-72
2022/09/24 07:22:15;;;;;;;36.80;19.88;;;;;;;12.09;58.82;101083.13;5011904;28;20538;-71
2022/09/24 07:24:41;;;;;;;37.60;19.75;;;;;;;12.19;57.94;101083.56;5009902;28;20045;-70
2022/09/24 07:27:07;;;;;;;37.53;22.40;;;;;;;12.20;58.33;101087.88;5011929;28;20461;-71
2022/09/24 07:29:33;;;;;;;31.48;18.88;;;;;;;12.22;58.22;101081.66;5011111;28;20099;-70
2022/09/24 07:31:58;;;;;;;31.40;17.83;;;;;;;12.22;58.28;101089.53;5010324;28;20048;-71
2022/09/24 07:34:24;;;;;;;28.83;18.33;;;;;;;12.23;58.09;101085.97;5011814;28;20037;-70
2022/09/24 07:36:49;;;;;;;51.25;30.13;;;;;;;12.26;58.25;101083.22;4996073;28;20180;-71
2022/09/24 07:39:15;;;;;;;33.85;19.17;;;;;;;12.29;58.01;101090.97;5012930;28;20030;-72
2022/09/24 07:41:41;;;;;;;33.63;19.02;;;;;;;12.34;58.08;101095.16;5009683;28;20030;-70
2022/09/24 07:44:08;;;;;;;27.48;15.75;;;;;;;12.47;58.13;101091.06;5010701;28;20037;-71
2022/09/24 07:46:34;;;;;;;28.13;18.63;;;;;;;12.22;58.29;101092.16;5006847;28;20035;-71
2022/09/24 07:48:59;;;;;;;29.95;18.30;;;;;;;11.98;58.68;101091.44;5012198;28;20370;-71
2022/09/24 07:51:27;;;;;;;32.75;18.35;;;;;;;12.25;58.25;101099.88;5010059;28;20033;-72
2022/09/24 07:53:54;;;;;;;32.05;19.90;;;;;;;12.32;58.35;101099.59;5010281;28;20620;-71
2022/09/24 07:56:20;;;;;;;34.03;18.13;;;;;;;12.17;58.52;101101.13;4990057;28;20029;-71
2022/09/24 07:58:50;;;;;;;33.45;18.95;;;;;;;12.20;58.69;101104.47;5008303;28;20037;-70
2022/09/24 08:01:16;;;;;;;28.20;18.45;;;;;;;12.29;58.20;101106.69;5010845;28;20045;-71
2022/09/24 08:03:42;;;;;;;30.38;18.30;;;;;;;12.22;58.49;101109.63;5009736;28;20144;-70
2022/09/24 08:06:08;;;;;;;37.00;20.88;;;;;;;12.31;58.25;101108.38;5010335;28;20476;-70
2022/09/24 08:08:34;;;;;;;33.78;18.30;;;;;;;12.03;58.77;101104.31;5009124;28;20050;-70
2022/09/24 08:11:06;;;;;;;28.98;17.20;;;;;;;12.29;58.64;101111.94;5007520;28;20045;-70
2022/09/24 08:13:35;;;;;;;33.72;20.52;;;;;;;12.18;58.56;101108.91;5004303;28;20045;-71
2022/09/24 08:16:02;;;;;;;32.50;18.63;;;;;;;11.99;59.11;101114.06;5008802;28;20080;-70
2022/09/24 08:18:30;;;;;;;36.33;19.05;;;;;;;12.22;58.68;101115.72;4989557;28;20921;-70
2022/09/24 08:20:56;;;;;;;40.70;19.80;;;;;;;12.14;58.86;101112.59;5007302;28;20128;-70
2022/09/24 08:23:22;;;;;;;30.85;17.27;;;;;;;12.33;58.50;101122.25;5006980;28;20052;-71
2022/09/24 08:25:48;;;;;;;35.55;18.73;;;;;;;12.27;58.78;101113.75;5006483;28;20042;-70
2022/09/24 08:28:15;;;;;;;34.08;18.60;;;;;;;12.42;58.57;101116.63;5011169;28;20073;-71
2022/09/24 08:30:43;;;;;;;37.55;19.55;;;;;;;12.40;58.36;101121.06;5004198;28;20541;-70
2022/09/24 08:33:09;;;;;;;34.70;19.83;;;;;;;12.57;58.35;101123.81;5006887;28;20132;-73
2022/09/24 08:35:35;;;;;;;36.70;20.27;;;;;;;12.68;58.19;101124.19;5006139;28;20025;-72
2022/09/24 08:38:02;;;;;;;28.65;16.73;;;;;;;12.77;58.26;101116.84;5008479;28;20044;-70
2022/09/24 08:40:48;;;;;;;30.50;17.30;;;;;;;12.86;58.11;101127.78;5008513;28;20616;-72
2022/09/24 08:43:29;;;;;;;31.70;17.13;;;;;;;12.91;58.14;101117.06;5012442;28;20099;-70
2022/09/24 08:48:48;;;;;;;37.30;20.65;;;;;;;12.89;57.64;101116.28;5006670;28;20042;-71
2022/09/24 08:51:19;;;;;;;33.13;18.55;;;;;;;12.94;58.01;101127.44;5011073;28;20102;-71
2022/09/24 08:53:57;;;;;;;34.70;17.52;;;;;;;13.08;58.24;101132.88;5004078;28;20096;-70
2022/09/24 08:56:26;;;;;;;42.00;19.73;;;;;;;13.08;57.86;101132.88;5014666;28;20668;-70
2022/09/24 08:59:19;;;;;;;40.45;19.15;;;;;;;13.07;57.64;101138.19;5004339;28;20045;-72
2022/09/24 09:01:56;;;;;;;35.28;19.55;;;;;;;12.98;57.90;101131.63;4998885;28;20034;-70
2022/09/24 09:04:36;;;;;;;39.00;18.52;;;;;;;13.02;57.98;101130.53;5011100;28;20041;-74
2022/09/24 09:07:24;;;;;;;27.02;16.38;;;;;;;13.18;58.13;101141.16;5005290;28;20073;-73
2022/09/24 09:09:53;;;;;;;30.95;16.70;;;;;;;13.20;57.84;101141.94;5006731;28;20045;-70
2022/09/24 09:12:47;;;;;;;31.17;18.52;;;;;;;13.19;57.77;101140.25;5007790;28;20133;-69
2022/09/24 09:15:27;;;;;;;29.55;16.20;;;;;;;12.98;57.52;101142.13;5009103;28;20037;-71
2022/09/24 09:18:20;;;;;;;29.13;16.23;;;;;;;12.82;58.13;101143.72;5006091;28;20042;-71
2022/09/24 09:20:48;;;;;;;27.50;15.80;;;;;;;12.67;58.16;101147.88;5005399;28;20089;-72
2022/09/24 09:23:40;;;;;;;29.60;17.08;;;;;;;12.67;58.24;101159.19;5007578;28;20744;-72
2022/09/24 09:26:10;;;;;;;;;;;;;;;12.95;58.24;101147.50;5008610;28;20153;-71
2022/09/24 09:28:36;;;;;;;37.53;16.98;;;;;;;12.97;57.89;101148.28;4994817;28;19929;-70
2022/09/24 09:31:21;;;;;;;36.42;18.40;;;;;;;12.96;57.84;101150.94;5007994;28;20026;-71
2022/09/24 09:34:15;;;;;;;26.48;16.23;;;;;;;12.96;57.72;101156.19;5010901;28;20048;-72
2022/09/24 09:36:53;;;;;;;30.27;17.10;;;;;;;13.20;57.30;101154.22;5000383;28;20033;-71
2022/09/24 09:39:32;;;;;;;29.48;15.50;;;;;;;13.05;57.33;101151.41;5011668;28;20025;-71
2022/09/24 09:42:01;;;;;;;28.52;15.82;;;;;;;13.17;56.91;101151.75;5011223;28;20045;-71
2022/09/24 09:44:30;;;;;;;28.13;15.65;;;;;;;13.02;57.29;101151.53;5007307;28;20041;-72
2022/09/24 09:47:31;;;;;;;29.50;16.42;;;;;;;13.15;57.04;101154.44;5004284;28;20041;-71
2022/09/24 09:50:21;;;;;;;26.98;16.83;;;;;;;13.03;56.95;101162.91;5007382;28;20029;-71
2022/09/24 09:52:46;;;;;;;22.85;15.23;;;;;;;13.08;57.07;101164.38;4996761;28;20053;-72
2022/09/24 09:55:28;;;;;;;23.20;13.02;;;;;;;13.04;57.36;101157.56;5003149;28;20636;-72
2022/09/24 09:58:09;;;;;;;24.55;12.75;;;;;;;12.86;57.50;101156.63;5002481;28;20033;-71
2022/09/24 10:00:35;;;;;;;12.67;8.13;;;;;;;12.74;57.92;101164.22;5022610;28;20466;-72
2022/09/24 10:03:02;;;;;;;12.02;8.15;;;;;;;12.58;57.88;101161.34;4994117;28;20068;-71
2022/09/24 10:05:29;;;;;;;8.25;6.03;;;;;;;12.33;58.93;101164.19;5002769;28;20065;-71
2022/09/24 10:07:58;;;;;;;11.70;7.50;;;;;;;12.27;58.43;101170.56;5011538;28;20082;-72
2022/09/24 10:10:26;;;;;;;10.55;5.70;;;;;;;12.39;58.06;101170.03;5004536;28;20120;-69
2022/09/24 10:13:13;;;;;;;13.80;7.90;;;;;;;11.94;59.10;101173.66;4997104;28;20077;-71
2022/09/24 10:15:51;;;;;;;14.65;9.10;;;;;;;11.80;59.12;101174.25;5005504;28;20077;-71
2022/09/24 10:18:28;;;;;;;16.38;9.65;;;;;;;12.13;58.55;101173.75;5010825;28;20037;-70
2022/09/24 10:20:55;;;;;;;17.63;9.55;;;;;;;11.69;59.80;101173.78;5009723;28;20042;-70
2022/09/24 10:23:29;;;;;;;17.40;9.80;;;;;;;12.01;58.80;101176.91;5011205;28;20042;-70
2022/09/24 10:26:00;;;;;;;14.65;9.75;;;;;;;12.06;58.62;101172.31;5007375;28;20449;-71
2022/09/24 10:31:17;;;;;;;13.43;8.65;;;;;;;12.17;58.29;101182.34;5010893;28;20079;-71
2022/09/24 10:33:47;;;;;;;15.23;9.25;;;;;;;12.04;58.55;101176.75;5011022;28;20060;-71
2022/09/24 10:36:21;;;;;;;13.80;8.20;;;;;;;12.07;58.70;101176.66;4999197;28;20107;-71
2022/09/24 10:38:47;;;;;;;14.55;9.18;;;;;;;11.67;59.74;101186.09;4991698;28;20574;-71
2022/09/24 10:41:25;;;;;;;13.02;7.97;;;;;;;11.73;59.53;101188.47;4990058;28;20102;-71
2022/09/24 10:43:55;;;;;;;11.48;7.88;;;;;;;11.61;59.72;101188.94;5001367;28;20041;-71
2022/09/24 10:46:45;;;;;;;13.68;8.80;;;;;;;11.56;60.33;101183.03;5010490;28;20526;-71
2022/09/24 10:49:44;;;;;;;10.57;7.53;;;;;;;11.75;59.80;101189.22;4996183;28;20041;-71
2022/09/24 10:52:39;;;;;;;9.90;7.07;;;;;;;11.82;59.75;101190.75;4993872;28;20531;-71
2022/09/24 10:55:18;;;;;;;10.65;6.90;;;;;;;11.68;60.12;101193.84;4988900;28;20335;-71
2022/09/24 10:58:05;;;;;;;9.75;6.28;;;;;;;11.65;60.46;101193.16;4987429;28;20117;-72
2022/09/24 11:00:48;;;;;;;11.20;6.03;;;;;;;11.65;60.22;101194.00;4978738;28;20041;-70
2022/09/24 11:03:36;;;;;;;7.28;5.53;;;;;;;11.69;60.55;101192.13;4988828;28;20057;-70
2022/09/24 11:06:17;;;;;;;7.68;5.53;;;;;;;11.72;59.87;101199.84;4988048;28;20038;-71
2022/09/24 11:09:10;;;;;;;11.20;6.40;;;;;;;11.56;60.66;101196.97;4986259;28;20038;-71
2022/09/24 11:11:55;;;;;;;10.07;6.38;;;;;;;11.70;60.35;101203.44;4990619;28;20048;-71
2022/09/24 11:14:55;;;;;;;10.48;6.95;;;;;;;11.78;60.23;101199.63;5008572;28;20038;-70
2022/09/24 11:17:39;;;;;;;9.35;5.93;;;;;;;11.67;60.76;101204.41;5009785;28;20137;-71
2022/09/24 11:20:14;;;;;;;11.15;6.63;;;;;;;11.76;60.11;101206.66;5026852;28;20672;-71
2022/09/24 11:23:04;;;;;;;9.80;7.40;;;;;;;11.93;59.76;101208.63;5017757;28;20049;-72
2022/09/24 11:25:37;;;;;;;8.90;6.60;;;;;;;12.00;59.46;101201.38;5013408;28;20399;-72
2022/09/24 11:28:32;;;;;;;10.27;6.78;;;;;;;11.70;59.99;101196.44;5005481;28;20046;-72
2022/09/24 11:31:24;;;;;;;6.65;5.68;;;;;;;11.35;60.99;101210.88;5003753;28;20037;-73
2022/09/24 11:34:27;;;;;;;10.82;6.95;;;;;;;11.37;60.71;101209.91;5001260;28;20041;-71
2022/09/24 11:37:25;;;;;;;8.70;6.15;;;;;;;11.42;60.90;101207.97;5005598;28;22447;-69
2022/09/24 11:39:57;;;;;;;10.10;6.45;;;;;;;11.15;61.58;101215.13;5007934;28;20038;-70
2022/09/24 11:42:50;;;;;;;9.90;6.30;;;;;;;11.01;61.68;101219.97;5007329;28;20038;-71